createdAt,value
2023-03-02T00:03:33.813Z,81.36
2023-03-02T00:08:38.685Z,81.32
2023-03-02T00:13:42.686Z,81.00
2023-03-02T00:18:46.242Z,80.94
2023-03-02T00:23:49.923Z,81.56
2023-03-02T00:28:56.153Z,81.59
2023-03-02T00:33:59.786Z,81.58
2023-03-02T00:39:04.924Z,81.51
2023-03-02T00:44:08.538Z,81.93
2023-03-02T00:49:13.287Z,82.34
2023-03-02T00:54:17.361Z,82.33
2023-03-02T00:59:29.657Z,83.04
2023-03-02T01:04:46.636Z,83.53
2023-03-02T01:09:50.584Z,83.82
2023-03-02T01:14:56.694Z,83.69
2023-03-02T01:20:00.910Z,83.11
2023-03-02T01:25:06.558Z,82.53
2023-03-02T01:30:11.209Z,82.42
2023-03-02T01:35:14.918Z,82.43
2023-03-02T01:40:18.718Z,83.07
2023-03-02T01:45:46.311Z,84.19
2023-03-02T01:50:53.496Z,84.44
2023-03-02T01:56:00.129Z,84.23
2023-03-02T02:01:05.305Z,83.54
2023-03-02T02:06:18.650Z,83.77
2023-03-02T02:11:22.765Z,84.09
2023-03-02T02:16:33.058Z,83.54
2023-03-02T02:21:38.296Z,83.51
2023-03-02T02:26:56.189Z,83.42
2023-03-02T02:32:07.010Z,83.84
2023-03-02T02:37:21.016Z,83.84
2023-03-02T02:42:34.896Z,83.66
2023-03-02T02:47:39.158Z,84.17
2023-03-02T02:52:44.986Z,84.99
2023-03-02T02:57:53.631Z,85.16
2023-03-02T03:03:29.925Z,85.14
2023-03-02T03:08:42.423Z,85.23
2023-03-02T03:13:48.201Z,85.47
2023-03-02T03:18:52.840Z,86.19
2023-03-02T03:24:12.865Z,86.76
2023-03-02T03:29:17.394Z,85.79
2023-03-02T03:34:22.116Z,85.63
2023-03-02T03:39:25.854Z,86.30
2023-03-02T03:44:30.060Z,86.12
2023-03-02T03:49:34.020Z,85.05
2023-03-02T03:54:38.721Z,84.47
2023-03-02T03:59:44.043Z,85.02
2023-03-02T04:04:48.614Z,85.42
2023-03-02T04:10:03.927Z,85.35
2023-03-02T04:15:15.052Z,84.97
2023-03-02T04:20:24.374Z,85.04
2023-03-02T04:25:31.563Z,85.65
2023-03-02T04:30:44.091Z,85.69
2023-03-02T04:35:48.392Z,85.83
2023-03-02T04:40:52.127Z,85.72
2023-03-02T04:45:56.844Z,85.89
2023-03-02T04:51:00.870Z,85.36
2023-03-02T04:56:04.906Z,85.80
2023-03-02T05:01:10.748Z,86.32
2023-03-02T05:06:15.120Z,86.79
2023-03-02T05:11:30.270Z,87.60
2023-03-02T05:16:36.901Z,86.85
2023-03-02T05:21:40.942Z,86.39
2023-03-02T05:26:46.616Z,86.98
2023-03-02T05:31:51.355Z,87.08
2023-03-02T05:36:55.359Z,87.17
2023-03-02T05:41:58.998Z,87.93
2023-03-02T05:47:02.594Z,87.37
2023-03-02T05:52:06.430Z,87.12
2023-03-02T05:57:09.987Z,86.89
2023-03-02T06:02:14.174Z,87.44
2023-03-02T06:07:18.436Z,87.38
2023-03-02T06:12:22.694Z,87.56
2023-03-02T06:17:27.100Z,87.93
2023-03-02T06:22:33.961Z,88.31
2023-03-02T06:27:39.194Z,88.53
2023-03-02T06:32:43.433Z,88.73
2023-03-02T06:37:48.292Z,88.89
2023-03-02T06:42:53.261Z,89.31
2023-03-02T06:47:56.981Z,89.46
2023-03-02T06:53:01.228Z,89.60
2023-03-02T06:58:05.023Z,89.54
2023-03-02T07:03:08.869Z,89.42
2023-03-02T07:08:12.646Z,89.80
2023-03-02T07:13:16.459Z,90.07
2023-03-02T07:18:21.060Z,90.20
2023-03-02T07:23:25.612Z,89.98
2023-03-02T07:28:29.620Z,90.25
2023-03-02T07:33:33.362Z,90.05
2023-03-02T07:38:38.431Z,90.32
2023-03-02T07:43:43.087Z,90.35
2023-03-02T07:48:47.362Z,90.34
2023-03-02T07:53:51.110Z,89.67
2023-03-02T07:58:55.304Z,89.94
2023-03-02T08:03:59.056Z,89.52
2023-03-02T08:09:04.707Z,89.15
2023-03-02T08:14:08.467Z,89.28
2023-03-02T08:19:12.137Z,89.12
2023-03-02T08:24:16.449Z,88.68
2023-03-02T08:29:20.619Z,88.94
2023-03-02T08:34:26.671Z,88.83
2023-03-02T08:39:32.465Z,88.43
2023-03-02T08:44:36.959Z,88.23
2023-03-02T08:49:40.851Z,87.69
2023-03-02T08:54:46.233Z,87.55
2023-03-02T08:59:52.706Z,87.54
2023-03-02T09:04:57.612Z,86.35
2023-03-02T09:10:02.349Z,86.15
2023-03-02T09:15:07.370Z,85.40
2023-03-02T09:20:12.496Z,84.90
2023-03-02T09:25:20.728Z,84.26
2023-03-02T09:30:26.878Z,84.53
2023-03-02T09:35:32.058Z,83.62
2023-03-02T09:40:41.352Z,83.31
2023-03-02T09:45:51.659Z,82.81
2023-03-02T09:50:59.604Z,82.74
2023-03-02T09:56:05.644Z,82.31
2023-03-02T10:01:16.838Z,81.46
2023-03-02T10:06:22.528Z,80.91
2023-03-02T10:11:36.009Z,80.73
2023-03-02T10:16:46.137Z,80.47
2023-03-02T10:22:16.265Z,79.82
2023-03-02T10:27:40.346Z,79.69
2023-03-02T10:32:46.642Z,79.35
2023-03-02T10:38:01.204Z,79.45
2023-03-02T10:43:06.555Z,78.87
2023-03-02T10:48:12.809Z,79.58
2023-03-02T10:53:20.326Z,79.60
2023-03-02T10:58:33.528Z,78.75
2023-03-02T11:03:38.299Z,78.57
2023-03-02T11:08:41.969Z,78.38
2023-03-02T11:13:46.673Z,78.28
2023-03-02T11:19:01.235Z,78.15
2023-03-02T11:24:27.284Z,77.72
2023-03-02T11:29:38.485Z,77.44
2023-03-02T11:34:45.421Z,76.78
2023-03-02T11:39:55.584Z,76.41
2023-03-02T11:45:23.106Z,76.65
2023-03-02T11:50:26.828Z,76.20
2023-03-02T11:55:36.585Z,76.49
2023-03-02T12:00:42.623Z,76.09
2023-03-02T12:05:54.030Z,76.32
2023-03-02T12:11:01.697Z,75.88
2023-03-02T12:16:19.930Z,76.11
2023-03-02T12:21:25.160Z,75.54
2023-03-02T12:26:33.313Z,74.67
2023-03-02T12:31:43.080Z,74.67
2023-03-02T12:36:47.048Z,74.46
2023-03-02T12:42:18.789Z,74.11
2023-03-02T12:47:30.323Z,73.52
2023-03-02T12:52:36.683Z,73.76
2023-03-02T12:57:52.326Z,73.83
2023-03-02T13:02:57.861Z,73.26
2023-03-02T13:08:06.502Z,73.20
2023-03-02T13:13:27.188Z,72.30
2023-03-02T13:18:33.812Z,72.68
2023-03-02T13:23:37.464Z,72.15
2023-03-02T13:28:42.313Z,72.13
2023-03-02T13:33:51.722Z,72.36
2023-03-02T13:39:00.012Z,72.00
2023-03-02T13:44:21.810Z,71.89
2023-03-02T13:49:32.847Z,71.51
2023-03-02T13:54:37.609Z,71.50
2023-03-02T13:59:42.371Z,70.85
2023-03-02T14:04:46.035Z,71.07
2023-03-02T14:09:50.012Z,70.41
2023-03-02T14:14:56.218Z,69.92
2023-03-02T14:19:59.748Z,69.87
2023-03-02T14:25:07.024Z,69.95
2023-03-02T14:30:17.344Z,69.67
2023-03-02T14:35:21.346Z,69.39
2023-03-02T14:40:28.051Z,69.53
2023-03-02T14:45:32.120Z,69.40
2023-03-02T14:50:39.526Z,69.09
2023-03-02T14:55:43.409Z,69.16
2023-03-02T15:00:47.755Z,69.20
2023-03-02T15:06:00.788Z,69.45
2023-03-02T15:11:06.900Z,68.99
2023-03-02T15:16:23.972Z,69.25
2023-03-02T15:21:27.902Z,69.09
2023-03-02T15:26:32.294Z,69.04
2023-03-02T15:31:36.362Z,68.58
2023-03-02T15:36:41.344Z,68.86
2023-03-02T15:41:45.229Z,69.68
2023-03-02T15:46:57.406Z,70.24
2023-03-02T15:52:01.996Z,70.66
2023-03-02T15:57:05.803Z,71.11
2023-03-02T16:02:10.698Z,72.36
2023-03-02T16:07:14.499Z,73.23
2023-03-02T16:12:23.734Z,74.66
2023-03-02T16:17:29.327Z,75.28
2023-03-02T16:22:34.393Z,76.29
2023-03-02T16:27:38.852Z,76.10
2023-03-02T16:32:42.782Z,77.09
2023-03-02T16:37:48.064Z,78.07
2023-03-02T16:42:53.312Z,78.34
2023-03-02T16:47:58.698Z,78.30
2023-03-02T16:53:04.658Z,79.21
2023-03-02T16:58:10.579Z,79.53
2023-03-02T17:03:18.567Z,80.00
2023-03-02T17:08:24.182Z,80.21
2023-03-02T17:13:32.133Z,80.72
2023-03-02T17:18:39.656Z,81.14
2023-03-02T17:23:49.180Z,81.50
2023-03-02T17:28:57.621Z,82.09
2023-03-02T17:34:04.985Z,82.06
2023-03-02T17:39:14.499Z,82.00
2023-03-02T17:44:23.625Z,82.59
2023-03-02T17:49:35.837Z,83.38
2023-03-02T17:54:46.166Z,83.23
2023-03-02T17:59:53.261Z,83.40
2023-03-02T18:04:57.982Z,84.31
2023-03-02T18:10:05.085Z,84.11
2023-03-02T18:15:09.800Z,84.51
2023-03-02T18:20:14.204Z,84.55
2023-03-02T18:25:19.232Z,84.75
2023-03-02T18:30:26.867Z,85.14
2023-03-02T18:35:32.764Z,85.36
2023-03-02T18:40:53.868Z,85.90
2023-03-02T18:45:58.907Z,87.06
2023-03-02T18:51:04.305Z,87.20
2023-03-02T18:56:10.557Z,87.53
2023-03-02T19:01:19.215Z,88.28
2023-03-02T19:06:26.607Z,88.05
2023-03-02T19:11:33.290Z,88.40
2023-03-02T19:16:42.580Z,88.32
2023-03-02T19:21:53.668Z,88.70
2023-03-02T19:27:02.815Z,89.51
2023-03-02T19:32:11.767Z,89.36
2023-03-02T19:37:17.705Z,89.57
2023-03-02T19:42:28.802Z,89.80
2023-03-02T19:47:39.687Z,89.85
2023-03-02T19:52:46.340Z,89.99
2023-03-02T19:58:00.133Z,90.01
2023-03-02T20:03:10.736Z,90.49
2023-03-02T20:08:19.067Z,90.66
2023-03-02T20:13:27.366Z,91.11
2023-03-02T20:18:33.766Z,91.12
2023-03-02T20:23:39.459Z,91.20
2023-03-02T20:28:44.939Z,91.59
2023-03-02T20:33:53.929Z,91.63
2023-03-02T20:39:17.742Z,91.95
2023-03-02T20:44:27.150Z,92.01
2023-03-02T20:49:33.678Z,92.14
2023-03-02T20:54:46.917Z,92.48
2023-03-02T20:59:53.336Z,92.69
2023-03-02T21:04:59.610Z,92.66
2023-03-02T21:10:08.376Z,92.63
2023-03-02T21:15:13.823Z,92.82
2023-03-02T21:20:21.445Z,92.99
2023-03-02T21:25:25.701Z,93.00
2023-03-02T21:30:37.942Z,93.15
2023-03-02T21:35:45.421Z,93.07
2023-03-02T21:40:49.881Z,93.31
2023-03-02T21:45:55.211Z,93.51
2023-03-02T21:51:00.247Z,93.69
2023-03-02T21:56:04.950Z,93.86
2023-03-02T22:01:08.992Z,93.96
2023-03-02T22:06:23.935Z,94.25
2023-03-02T22:11:36.149Z,94.16
2023-03-02T22:16:43.622Z,94.03
2023-03-02T22:21:49.767Z,94.48
2023-03-02T22:27:20.628Z,94.61
2023-03-02T22:32:38.606Z,94.71
2023-03-02T22:37:44.847Z,94.81
2023-03-02T22:42:49.645Z,95.05
2023-03-02T22:47:54.252Z,95.13
2023-03-02T22:53:17.375Z,95.23
2023-03-02T22:58:46.826Z,95.59
2023-03-02T23:03:54.268Z,95.48
2023-03-02T23:09:00.856Z,95.76
2023-03-02T23:14:19.510Z,95.80
2023-03-02T23:19:23.536Z,95.77
2023-03-02T23:24:28.608Z,95.95
2023-03-02T23:29:32.635Z,95.97
2023-03-02T23:34:37.254Z,96.68
2023-03-02T23:39:41.042Z,96.66
2023-03-02T23:44:45.860Z,96.74
2023-03-02T23:49:50.408Z,96.88
2023-03-02T23:54:54.494Z,97.12
